Time;durP1;ratioP1;P1;durP2;ratioP2;P2;SDS_P1;SDS_P2;PMS_P1;PMS_P2;Temp;Humidity;BMP_temperature;BMP_pressure;BME280_temperature;BME280_humidity;BME280_pressure;Samples;Min_cycle;Max_cycle;Signal;HPM_P1;HPM_P2
2022/03/22 00:02:19;;;;;;;5.78;3.10;;;;;;;;;;1716967;82;21042;-69
2022/03/22 00:04:46;;;;;;;5.08;3.27;;;;;;;;;;1717108;83;21124;-71
2022/03/22 00:07:12;;;;;;;6.25;3.17;;;;;;;;;;1716824;83;21548;-70
2022/03/22 00:09:39;;;;;;;6.80;3.35;;;;;;;;;;1717098;83;21042;-70
2022/03/22 00:12:07;;;;;;;6.62;3.27;;;;;;;;;;1716932;83;21101;-71
2022/03/22 00:14:34;;;;;;;9.03;3.10;;;;;;;;;;1717213;83;21457;-71
2022/03/22 00:17:03;;;;;;;8.60;3.40;;;;;;;;;;1716973;83;21045;-71
2022/03/22 00:19:29;;;;;;;8.40;3.42;;;;;;;;;;1723092;83;21085;-71
2022/03/22 00:21:57;;;;;;;7.55;3.27;;;;;;;;;;1729822;82;21553;-70
2022/03/22 00:24:24;;;;;;;4.72;3.22;;;;;;;;;;1729670;82;21040;-70
2022/03/22 00:26:50;;;;;;;9.30;3.70;;;;;;;;;;1729971;83;21053;-70
2022/03/22 00:29:18;;;;;;;5.40;3.00;;;;;;;;;;1729685;83;21069;-71
2022/03/22 00:31:45;;;;;;;6.62;3.45;;;;;;;;;;1729969;82;21560;-70
2022/03/22 00:34:13;;;;;;;6.47;3.52;;;;;;;;;;1729694;82;21096;-70
2022/03/22 00:36:40;;;;;;;8.65;3.33;;;;;;;;;;1729868;83;21368;-70
2022/03/22 00:39:06;;;;;;;8.08;2.92;;;;;;;;;;1729840;82;21017;-71
2022/03/22 00:41:34;;;;;;;7.25;3.47;;;;;;;;;;1729810;82;21037;-71
2022/03/22 00:44:01;;;;;;;7.72;3.92;;;;;;;;;;1729410;83;21033;-71
2022/03/22 00:46:27;;;;;;;7.97;3.05;;;;;;;;;;1729853;83;21053;-71
2022/03/22 00:48:54;;;;;;;7.62;3.45;;;;;;;;;;1729588;82;21033;-71
2022/03/22 00:51:23;;;;;;;8.53;3.58;;;;;;;;;;1729854;83;21068;-69
2022/03/22 00:53:51;;;;;;;8.65;3.60;;;;;;;;;;1729666;83;21081;-70
2022/03/22 00:56:18;;;;;;;7.15;3.87;;;;;;;;;;1729893;82;20993;-69
2022/03/22 00:58:44;;;;;;;6.17;3.10;;;;;;;;;;1729647;83;21072;-69
2022/03/22 01:03:54;;;;;;;7.90;3.25;;;;;;;;;;1696369;80;21200;-70
2022/03/22 01:06:22;;;;;;;7.10;3.42;;;;;;;;;;1634566;87;20998;-70
2022/03/22 01:08:50;;;;;;;9.40;3.47;;;;;;;;;;1649012;87;21093;-70
2022/03/22 01:11:16;;;;;;;6.87;2.95;;;;;;;;;;1648662;87;21506;-70
2022/03/22 01:13:43;;;;;;;5.10;3.22;;;;;;;;;;1648617;87;21121;-70
2022/03/22 01:16:09;;;;;;;6.90;3.42;;;;;;;;;;1648935;87;21046;-70
2022/03/22 01:18:36;;;;;;;6.53;3.42;;;;;;;;;;1648893;87;21089;-71
2022/03/22 01:21:03;;;;;;;7.00;3.30;;;;;;;;;;1648981;87;21561;-70
2022/03/22 01:23:31;;;;;;;6.20;3.22;;;;;;;;;;1648771;87;21533;-70
2022/03/22 01:25:57;;;;;;;7.50;3.25;;;;;;;;;;1648825;87;20986;-71
2022/03/22 01:28:24;;;;;;;6.85;3.15;;;;;;;;;;1648953;87;21093;-71
2022/03/22 01:30:52;;;;;;;5.05;3.25;;;;;;;;;;1648702;87;21058;-70
2022/03/22 01:33:19;;;;;;;7.22;3.90;;;;;;;;;;1648889;87;21121;-70
2022/03/22 01:35:46;;;;;;;9.18;3.80;;;;;;;;;;1648920;86;21062;-70
2022/03/22 01:38:13;;;;;;;9.60;4.20;;;;;;;;;;1649037;87;21141;-71
2022/03/22 01:40:40;;;;;;;8.25;4.22;;;;;;;;;;1648543;87;21081;-71
2022/03/22 01:43:07;;;;;;;10.35;3.87;;;;;;;;;;1648798;87;21093;-71
2022/03/22 01:45:34;;;;;;;8.48;4.45;;;;;;;;;;1648787;87;21593;-71
2022/03/22 01:48:01;;;;;;;7.85;3.55;;;;;;;;;;1648872;87;21143;-71
2022/03/22 01:50:28;;;;;;;6.83;3.65;;;;;;;;;;1648926;87;21091;-71
2022/03/22 01:52:54;;;;;;;7.15;3.22;;;;;;;;;;1648847;87;21085;-72
2022/03/22 01:55:23;;;;;;;7.17;3.70;;;;;;;;;;1648874;87;21054;-71
2022/03/22 01:57:50;;;;;;;9.53;4.30;;;;;;;;;;1648593;87;21089;-71
2022/03/22 02:00:18;;;;;;;5.45;3.25;;;;;;;;;;1648961;87;21110;-71
2022/03/22 02:08:19;;;;;;;7.70;3.77;;;;;;;;;;1620109;88;21061;-71
2022/03/22 02:10:48;;;;;;;8.45;4.45;;;;;;;;;;1621762;88;21144;-71
2022/03/22 02:13:16;;;;;;;9.25;4.28;;;;;;;;;;1622330;88;21061;-70
2022/03/22 02:15:44;;;;;;;9.85;4.10;;;;;;;;;;1622519;88;21062;-70
2022/03/22 02:18:12;;;;;;;6.75;3.55;;;;;;;;;;1622219;88;21129;-71
2022/03/22 02:20:39;;;;;;;8.85;3.77;;;;;;;;;;1622271;88;21069;-71
2022/03/22 02:23:06;;;;;;;10.78;4.37;;;;;;;;;;1622526;88;21070;-71
2022/03/22 02:25:35;;;;;;;7.67;3.95;;;;;;;;;;1622303;88;21093;-71
2022/03/22 02:28:03;;;;;;;11.00;4.17;;;;;;;;;;1622387;88;21549;-71
2022/03/22 02:30:30;;;;;;;10.80;4.47;;;;;;;;;;1621787;88;21037;-71
2022/03/22 02:32:59;;;;;;;9.15;3.92;;;;;;;;;;1622397;88;21093;-71
2022/03/22 02:35:26;;;;;;;7.25;4.10;;;;;;;;;;1622191;88;21088;-71
2022/03/22 02:37:52;;;;;;;8.20;3.98;;;;;;;;;;1622335;88;21133;-71
2022/03/22 02:40:19;;;;;;;7.65;3.98;;;;;;;;;;1622312;88;21568;-71
2022/03/22 02:42:47;;;;;;;7.50;3.77;;;;;;;;;;1622405;88;21089;-71
2022/03/22 02:45:15;;;;;;;8.98;4.17;;;;;;;;;;1623461;87;21109;-71
2022/03/22 02:47:42;;;;;;;7.33;3.65;;;;;;;;;;1622472;88;21065;-71
2022/03/22 02:50:08;;;;;;;11.12;4.62;;;;;;;;;;1622227;88;21113;-70
2022/03/22 02:52:36;;;;;;;10.15;3.98;;;;;;;;;;1622285;88;21081;-71
2022/03/22 02:55:03;;;;;;;6.62;3.85;;;;;;;;;;1622381;88;21097;-70
2022/03/22 02:57:30;;;;;;;8.73;4.10;;;;;;;;;;1622300;88;21073;-70
2022/03/22 02:59:56;;;;;;;6.92;3.75;;;;;;;;;;1622370;88;21088;-70
2022/03/22 03:02:24;;;;;;;12.15;4.78;;;;;;;;;;1621739;88;21038;-70
2022/03/22 03:04:50;;;;;;;11.15;4.10;;;;;;;;;;1612901;87;21635;-70
2022/03/22 03:07:17;;;;;;;11.10;5.17;;;;;;;;;;1603021;89;21152;-70
2022/03/22 03:09:45;;;;;;;6.05;3.42;;;;;;;;;;1602993;89;21113;-71
2022/03/22 03:12:11;;;;;;;9.65;4.28;;;;;;;;;;1602946;89;21089;-71
2022/03/22 03:14:39;;;;;;;12.00;4.40;;;;;;;;;;1603332;89;21094;-70
2022/03/22 03:17:10;;;;;;;9.35;4.35;;;;;;;;;;1602986;89;21065;-71
2022/03/22 03:19:37;;;;;;;10.45;3.72;;;;;;;;;;1603039;89;21568;-71
2022/03/22 03:22:04;;;;;;;12.53;5.22;;;;;;;;;;1602928;89;21033;-71
2022/03/22 03:24:31;;;;;;;9.88;4.80;;;;;;;;;;1603286;89;21076;-71
2022/03/22 03:26:58;;;;;;;9.13;4.40;;;;;;;;;;1603126;89;21101;-71
2022/03/22 03:29:25;;;;;;;11.75;5.08;;;;;;;;;;1603225;89;21137;-71
2022/03/22 03:31:51;;;;;;;14.10;4.97;;;;;;;;;;1602846;89;21085;-71
2022/03/22 03:35:05;;;;;;;8.48;4.55;;;;;;;;;;1802091;79;23054;-71
2022/03/22 03:37:35;;;;;;;13.70;4.87;;;;;;;;;;1762154;81;21587;-71
2022/03/22 03:40:03;;;;;;;8.73;4.42;;;;;;;;;;1761711;81;21080;-71
2022/03/22 03:42:30;;;;;;;8.63;4.80;;;;;;;;;;1761725;81;21021;-71
2022/03/22 03:47:43;;;;;;;11.43;4.72;;;;;;;;;;1761676;81;21113;-72
2022/03/22 03:50:09;;;;;;;9.88;4.45;;;;;;;;;;1761914;81;21036;-71
2022/03/22 03:52:37;;;;;;;11.10;4.53;;;;;;;;;;1761829;81;21032;-72
2022/03/22 03:55:06;;;;;;;9.43;3.62;;;;;;;;;;1761748;81;21068;-72
2022/03/22 03:57:32;;;;;;;10.78;4.92;;;;;;;;;;1761967;81;21056;-72
2022/03/22 03:59:59;;;;;;;10.85;4.33;;;;;;;;;;1761466;81;21756;-72
2022/03/22 04:02:26;;;;;;;6.40;3.90;;;;;;;;;;1761972;81;21088;-72
2022/03/22 04:04:52;;;;;;;11.12;4.65;;;;;;;;;;1733001;81;21072;-72
2022/03/22 04:07:19;;;;;;;7.80;4.47;;;;;;;;;;1730279;82;21045;-72
2022/03/22 04:09:46;;;;;;;9.78;4.62;;;;;;;;;;1729785;83;21099;-72
2022/03/22 04:12:13;;;;;;;11.80;4.53;;;;;;;;;;1730282;83;21049;-71
2022/03/22 04:14:41;;;;;;;10.40;4.22;;;;;;;;;;1729750;82;21584;-71
2022/03/22 04:17:08;;;;;;;7.00;4.30;;;;;;;;;;1729961;82;21040;-71
2022/03/22 04:19:35;;;;;;;10.58;4.05;;;;;;;;;;1730142;82;21072;-71
2022/03/22 04:22:02;;;;;;;6.22;4.20;;;;;;;;;;1730052;83;21037;-71
2022/03/22 04:24:30;;;;;;;7.30;4.08;;;;;;;;;;1730130;82;21068;-71
2022/03/22 04:32:41;;;;;;;7.87;4.22;;;;;;;;;;1730043;82;21202;-71
2022/03/22 04:34:56;;;;;;;10.10;4.35;;;;;;;;;;1719306;83;21081;-71
2022/03/22 04:37:24;;;;;;;9.60;4.37;;;;;;;;;;1717374;83;21548;-70
2022/03/22 04:39:51;;;;;;;10.63;4.30;;;;;;;;;;1717553;83;21564;-71
2022/03/22 04:42:17;;;;;;;7.60;4.25;;;;;;;;;;1717495;83;21006;-71
2022/03/22 04:44:44;;;;;;;14.58;5.20;;;;;;;;;;1717314;83;21108;-71
2022/03/22 04:47:11;;;;;;;13.75;4.50;;;;;;;;;;1716907;83;21014;-71
2022/03/22 04:49:38;;;;;;;8.78;4.08;;;;;;;;;;1716991;83;21065;-71
2022/03/22 04:57:35;;;;;;;9.55;4.83;;;;;;;;;;1717043;83;21002;-71
2022/03/22 05:00:02;;;;;;;12.58;5.60;;;;;;;;;;1716968;83;21014;-71
2022/03/22 05:02:29;;;;;;;13.83;5.65;;;;;;;;;;1717160;83;21097;-70
2022/03/22 05:04:56;;;;;;;9.08;4.55;;;;;;;;;;1716810;82;21121;-70
2022/03/22 05:07:23;;;;;;;9.70;4.78;;;;;;;;;;1717206;83;21065;-71
2022/03/22 05:09:50;;;;;;;11.65;5.33;;;;;;;;;;1716792;83;21604;-70
2022/03/22 05:12:17;;;;;;;17.00;5.95;;;;;;;;;;1717397;83;21147;-70
2022/03/22 05:14:47;;;;;;;14.65;5.90;;;;;;;;;;1716681;83;21049;-71
2022/03/22 05:17:12;;;;;;;12.15;5.33;;;;;;;;;;1717219;83;21544;-70
2022/03/22 05:19:39;;;;;;;8.83;4.90;;;;;;;;;;1716987;83;21061;-71
2022/03/22 05:22:07;;;;;;;7.62;4.45;;;;;;;;;;1716734;83;21568;-71
2022/03/22 05:24:34;;;;;;;11.38;5.22;;;;;;;;;;1716700;83;21064;-70
2022/03/22 05:27:02;;;;;;;9.55;4.97;;;;;;;;;;1717059;83;21112;-71
2022/03/22 05:29:29;;;;;;;9.95;5.25;;;;;;;;;;1716809;83;21057;-71
2022/03/22 05:31:55;;;;;;;10.30;5.67;;;;;;;;;;1716875;83;21006;-71
2022/03/22 05:34:22;;;;;;;12.13;6.35;;;;;;;;;;1722892;83;22098;-71
2022/03/22 05:36:50;;;;;;;10.32;5.95;;;;;;;;;;1729687;83;21521;-71
2022/03/22 05:39:16;;;;;;;12.88;6.10;;;;;;;;;;1729883;83;21083;-71
2022/03/22 05:41:44;;;;;;;10.15;5.90;;;;;;;;;;1729535;82;21088;-72
2022/03/22 05:44:13;;;;;;;9.53;5.58;;;;;;;;;;1729813;82;21011;-71
2022/03/22 05:46:41;;;;;;;10.38;5.35;;;;;;;;;;1729607;83;21114;-71
2022/03/22 05:49:13;;;;;;;10.63;5.97;;;;;;;;;;1729894;83;21604;-71
2022/03/22 05:51:40;;;;;;;12.40;6.85;;;;;;;;;;1729414;82;21177;-71
2022/03/22 05:54:07;;;;;;;10.03;5.83;;;;;;;;;;1729830;83;21520;-71
2022/03/22 05:56:33;;;;;;;12.25;6.40;;;;;;;;;;1729557;82;21033;-71
2022/03/22 05:59:00;;;;;;;13.80;6.62;;;;;;;;;;1729755;83;21096;-71
2022/03/22 06:01:27;;;;;;;11.12;6.12;;;;;;;;;;1729512;83;21041;-71
2022/03/22 06:03:54;;;;;;;10.25;6.12;;;;;;;;;;1729670;81;21615;-71
2022/03/22 06:06:21;;;;;;;13.28;6.45;;;;;;;;;;1729638;82;21121;-71
2022/03/22 06:08:50;;;;;;;11.93;6.00;;;;;;;;;;1729651;82;21068;-71
2022/03/22 06:11:17;;;;;;;9.43;6.25;;;;;;;;;;1729742;82;21614;-72
2022/03/22 06:13:44;;;;;;;8.28;5.65;;;;;;;;;;1729790;82;22180;-71
2022/03/22 06:16:10;;;;;;;15.35;5.95;;;;;;;;;;1729742;83;21076;-71
2022/03/22 06:18:37;;;;;;;11.80;6.08;;;;;;;;;;1729730;82;21072;-71
2022/03/22 06:21:04;;;;;;;11.68;6.65;;;;;;;;;;1729816;83;21002;-72
2022/03/22 06:23:31;;;;;;;10.68;6.65;;;;;;;;;;1729652;82;21547;-71
2022/03/22 06:26:01;;;;;;;12.90;5.97;;;;;;;;;;1729994;82;21040;-72
2022/03/22 06:28:27;;;;;;;12.80;6.72;;;;;;;;;;1729878;82;21028;-72
2022/03/22 06:30:54;;;;;;;9.00;5.58;;;;;;;;;;1729930;83;21053;-70
2022/03/22 06:33:22;;;;;;;11.53;5.95;;;;;;;;;;1729745;83;21076;-70
2022/03/22 06:35:49;;;;;;;11.43;6.22;;;;;;;;;;1729543;83;21064;-70
2022/03/22 06:38:16;;;;;;;9.50;5.10;;;;;;;;;;1729779;83;21092;-70
2022/03/22 06:40:43;;;;;;;14.05;5.80;;;;;;;;;;1729780;83;21060;-70
2022/03/22 06:43:10;;;;;;;11.63;6.20;;;;;;;;;;1729932;82;21045;-70
2022/03/22 06:45:37;;;;;;;13.18;5.90;;;;;;;;;;1729476;82;21515;-70
2022/03/22 06:48:04;;;;;;;14.07;6.92;;;;;;;;;;1729609;83;21091;-70
2022/03/22 06:50:31;;;;;;;11.35;6.33;;;;;;;;;;1729587;83;21060;-71
2022/03/22 06:52:59;;;;;;;11.45;5.50;;;;;;;;;;1729797;82;21089;-71
2022/03/22 06:55:26;;;;;;;10.05;5.65;;;;;;;;;;1729510;82;21033;-71
2022/03/22 06:57:52;;;;;;;11.43;6.03;;;;;;;;;;1729841;83;21033;-71
2022/03/22 07:00:20;;;;;;;12.55;6.17;;;;;;;;;;1729514;83;21068;-71
2022/03/22 07:02:47;;;;;;;12.90;6.50;;;;;;;;;;1729629;81;21009;-71
2022/03/22 07:05:13;;;;;;;12.63;6.62;;;;;;;;;;1729590;83;21088;-71
2022/03/22 07:07:40;;;;;;;11.38;5.65;;;;;;;;;;1729567;83;21044;-71
2022/03/22 07:10:08;;;;;;;10.32;5.58;;;;;;;;;;1729788;82;21072;-71
2022/03/22 07:12:47;;;;;;;11.68;6.00;;;;;;;;;;1729682;82;21207;-71
2022/03/22 07:15:14;;;;;;;9.78;5.25;;;;;;;;;;1710375;83;21048;-72
2022/03/22 07:17:41;;;;;;;9.48;5.55;;;;;;;;;;1729576;83;21029;-71
2022/03/22 07:20:08;;;;;;;11.00;5.75;;;;;;;;;;1729945;82;21064;-72
2022/03/22 07:22:34;;;;;;;10.98;5.33;;;;;;;;;;1729565;82;21068;-72
2022/03/22 07:25:01;;;;;;;9.85;5.62;;;;;;;;;;1729767;82;21049;-72
2022/03/22 07:27:28;;;;;;;10.05;4.92;;;;;;;;;;1729670;83;21057;-72
2022/03/22 07:29:56;;;;;;;9.78;5.53;;;;;;;;;;1729693;83;21064;-71
2022/03/22 07:32:23;;;;;;;10.10;5.00;;;;;;;;;;1729619;83;21064;-70
2022/03/22 07:34:49;;;;;;;12.05;6.15;;;;;;;;;;1729406;83;21029;-72
2022/03/22 07:37:17;;;;;;;10.60;4.92;;;;;;;;;;1729672;82;21108;-72
2022/03/22 07:39:43;;;;;;;8.65;4.72;;;;;;;;;;1729350;82;21583;-71
2022/03/22 07:42:10;;;;;;;12.00;5.60;;;;;;;;;;1729835;83;21497;-71
2022/03/22 07:44:38;;;;;;;12.23;5.47;;;;;;;;;;1729848;82;21100;-71
2022/03/22 07:47:05;;;;;;;10.75;5.42;;;;;;;;;;1729777;83;21136;-71
2022/03/22 07:55:03;;;;;;;9.43;5.40;;;;;;;;;;1729549;82;21061;-71
2022/03/22 07:57:30;;;;;;;10.28;5.97;;;;;;;;;;1729942;83;20957;-71
2022/03/22 07:59:56;;;;;;;9.25;5.17;;;;;;;;;;1729449;82;21033;-71
2022/03/22 08:02:23;;;;;;;11.22;5.80;;;;;;;;;;1729861;83;21061;-71
2022/03/22 08:04:50;;;;;;;10.75;5.42;;;;;;;;;;1729448;81;21065;-71
2022/03/22 08:07:16;;;;;;;9.85;5.20;;;;;;;;;;1729813;82;21033;-71
2022/03/22 08:09:45;;;;;;;12.80;5.85;;;;;;;;;;1729455;83;21033;-72
2022/03/22 08:12:13;;;;;;;10.75;5.33;;;;;;;;;;1729482;82;21096;-71
2022/03/22 08:14:41;;;;;;;10.08;5.30;;;;;;;;;;1727734;82;21092;-73
2022/03/22 08:17:07;;;;;;;10.58;5.17;;;;;;;;;;1729784;82;21524;-74
2022/03/22 08:19:35;;;;;;;8.63;5.20;;;;;;;;;;1729497;82;21077;-71
2022/03/22 08:22:02;;;;;;;11.00;5.17;;;;;;;;;;1729624;82;21453;-72
2022/03/22 08:24:28;;;;;;;9.28;5.53;;;;;;;;;;1729714;83;21040;-72
2022/03/22 08:26:55;;;;;;;8.43;4.97;;;;;;;;;;1729723;83;21080;-72
2022/03/22 08:29:22;;;;;;;11.08;4.92;;;;;;;;;;1729888;83;21084;-73
2022/03/22 08:31:51;;;;;;;9.43;5.10;;;;;;;;;;1729812;83;21016;-72
2022/03/22 08:34:17;;;;;;;10.63;5.60;;;;;;;;;;1727823;83;21130;-71
2022/03/22 08:36:44;;;;;;;12.35;6.08;;;;;;;;;;1716989;83;21065;-70
2022/03/22 08:39:12;;;;;;;10.65;5.42;;;;;;;;;;1717111;83;21093;-71
2022/03/22 08:41:39;;;;;;;10.82;5.17;;;;;;;;;;1717151;83;21532;-72
2022/03/22 08:44:06;;;;;;;10.95;5.15;;;;;;;;;;1716840;83;21595;-72
2022/03/22 08:46:33;;;;;;;9.55;4.67;;;;;;;;;;1716796;83;21564;-72
2022/03/22 08:48:59;;;;;;;7.67;3.77;;;;;;;;;;1717088;83;21218;-71
2022/03/22 08:51:27;;;;;;;8.93;4.92;;;;;;;;;;1716572;83;21057;-71
2022/03/22 08:53:54;;;;;;;8.63;4.35;;;;;;;;;;1716772;83;21085;-72
2022/03/22 08:56:22;;;;;;;7.40;4.25;;;;;;;;;;1716963;83;21100;-72
2022/03/22 08:58:52;;;;;;;9.15;4.47;;;;;;;;;;1716714;83;21089;-72
2022/03/22 09:01:24;;;;;;;9.30;4.78;;;;;;;;;;1716837;83;21081;-72
2022/03/22 09:06:07;;;;;;;9.40;4.80;;;;;;;;;;1717222;82;21506;-72
2022/03/22 09:06:18;;;;;;;8.73;4.90;;;;;;;;;;1715215;83;22028;-72
2022/03/22 09:08:46;;;;;;;9.35;5.10;;;;;;;;;;1716876;83;21100;-71
2022/03/22 09:11:15;;;;;;;10.75;5.15;;;;;;;;;;1717042;83;21044;-72
2022/03/22 09:13:41;;;;;;;13.38;5.62;;;;;;;;;;1716936;83;21583;-72
2022/03/22 09:16:13;;;;;;;11.75;5.33;;;;;;;;;;1716641;83;21140;-71
2022/03/22 09:18:38;;;;;;;10.23;4.53;;;;;;;;;;1716987;83;21081;-71
2022/03/22 09:21:05;;;;;;;10.08;4.92;;;;;;;;;;1717131;83;21021;-72
2022/03/22 09:23:33;;;;;;;6.95;4.20;;;;;;;;;;1716982;83;21104;-71
2022/03/22 09:26:00;;;;;;;11.55;4.20;;;;;;;;;;1716933;83;21549;-71
2022/03/22 09:28:27;;;;;;;8.28;4.05;;;;;;;;;;1717100;83;21104;-71
2022/03/22 09:30:54;;;;;;;8.33;3.85;;;;;;;;;;1716882;83;21090;-72
2022/03/22 09:33:23;;;;;;;7.47;4.15;;;;;;;;;;1716970;83;21072;-72
2022/03/22 09:35:53;;;;;;;8.83;4.10;;;;;;;;;;1716869;83;21065;-72
2022/03/22 09:38:18;;;;;;;7.45;3.55;;;;;;;;;;1716615;83;21120;-73
2022/03/22 09:40:45;;;;;;;7.08;3.72;;;;;;;;;;1717025;83;21120;-72
2022/03/22 09:43:12;;;;;;;8.83;3.52;;;;;;;;;;1716928;83;21065;-72
2022/03/22 09:45:40;;;;;;;6.87;4.33;;;;;;;;;;1716853;83;21088;-72
2022/03/22 09:48:07;;;;;;;9.25;4.25;;;;;;;;;;1706805;83;21041;-72
2022/03/22 09:53:20;;;;;;;7.67;3.92;;;;;;;;;;1716743;83;21026;-72
2022/03/22 09:55:48;;;;;;;6.58;3.35;;;;;;;;;;1716862;83;21520;-72
2022/03/22 09:58:14;;;;;;;7.12;3.17;;;;;;;;;;1717004;83;21009;-71
2022/03/22 10:00:43;;;;;;;6.17;2.87;;;;;;;;;;1716727;83;21033;-71
2022/03/22 10:03:11;;;;;;;8.15;4.35;;;;;;;;;;1716967;82;21113;-72
2022/03/22 10:05:38;;;;;;;6.05;3.33;;;;;;;;;;1716352;83;21049;-72
2022/03/22 10:08:05;;;;;;;6.40;3.12;;;;;;;;;;1716777;83;21553;-72
2022/03/22 10:10:32;;;;;;;5.50;2.70;;;;;;;;;;1716727;83;21614;-72
2022/03/22 10:13:00;;;;;;;6.60;2.90;;;;;;;;;;1716498;83;21271;-72
2022/03/22 10:15:29;;;;;;;5.92;2.70;;;;;;;;;;1716940;83;21009;-71
2022/03/22 10:18:00;;;;;;;6.37;2.58;;;;;;;;;;1716874;83;21588;-71
2022/03/22 10:20:29;;;;;;;5.90;2.85;;;;;;;;;;1716506;83;21535;-72
2022/03/22 10:22:57;;;;;;;3.55;2.45;;;;;;;;;;1716659;83;21093;-71
2022/03/22 10:25:23;;;;;;;6.28;3.20;;;;;;;;;;1716845;83;21029;-71
2022/03/22 10:27:54;;;;;;;6.37;3.30;;;;;;;;;;1716820;83;21061;-73
2022/03/22 10:30:20;;;;;;;8.33;2.98;;;;;;;;;;1716920;83;21544;-72
2022/03/22 10:32:51;;;;;;;4.55;2.80;;;;;;;;;;1716694;83;21093;-72
2022/03/22 10:35:16;;;;;;;7.12;3.25;;;;;;;;;;1716508;83;21077;-71
2022/03/22 10:37:43;;;;;;;3.85;2.30;;;;;;;;;;1716895;83;21022;-72
2022/03/22 10:40:20;;;;;;;5.33;2.90;;;;;;;;;;1716754;83;21026;-72
2022/03/22 10:42:48;;;;;;;7.55;2.47;;;;;;;;;;1716855;83;21049;-72
2022/03/22 10:45:14;;;;;;;6.08;2.87;;;;;;;;;;1716785;83;21061;-72
2022/03/22 10:47:41;;;;;;;5.05;2.52;;;;;;;;;;1717010;83;21093;-72
2022/03/22 10:50:08;;;;;;;7.60;2.92;;;;;;;;;;1716806;83;21097;-72
2022/03/22 10:52:40;;;;;;;3.72;2.37;;;;;;;;;;1716855;83;21517;-72
2022/03/22 10:55:04;;;;;;;4.62;2.85;;;;;;;;;;1706455;83;21030;-72
2022/03/22 10:57:32;;;;;;;6.03;3.37;;;;;;;;;;1716776;83;21033;-72
2022/03/22 11:00:01;;;;;;;4.60;3.00;;;;;;;;;;1716655;83;21576;-71
2022/03/22 11:02:29;;;;;;;4.75;2.87;;;;;;;;;;1716693;83;21596;-72
2022/03/22 11:04:58;;;;;;;5.37;2.85;;;;;;;;;;1716676;82;21136;-71
2022/03/22 11:07:25;;;;;;;5.30;3.08;;;;;;;;;;1716754;83;21085;-71
2022/03/22 11:09:52;;;;;;;7.20;3.05;;;;;;;;;;1716730;83;21037;-72
2022/03/22 11:12:19;;;;;;;6.03;3.08;;;;;;;;;;1716813;83;21077;-72
2022/03/22 11:14:45;;;;;;;7.62;4.08;;;;;;;;;;1716893;83;21062;-72
2022/03/22 11:17:12;;;;;;;7.15;3.67;;;;;;;;;;1716766;83;21112;-71
2022/03/22 11:19:40;;;;;;;8.40;4.05;;;;;;;;;;1716643;83;21596;-72
2022/03/22 11:22:07;;;;;;;6.30;3.65;;;;;;;;;;1716814;83;21104;-71
2022/03/22 11:24:34;;;;;;;7.85;3.50;;;;;;;;;;1706496;83;21094;-71
2022/03/22 11:27:03;;;;;;;7.35;3.47;;;;;;;;;;1716509;83;21139;-72
2022/03/22 11:29:30;;;;;;;8.68;4.37;;;;;;;;;;1706914;83;21121;-72
2022/03/22 11:34:45;;;;;;;7.42;4.00;;;;;;;;;;1716739;83;21045;-71
2022/03/22 11:37:13;;;;;;;7.15;4.03;;;;;;;;;;1728627;83;21507;-71
2022/03/22 11:42:18;;;;;;;9.18;4.35;;;;;;;;;;1665931;83;21517;-71
2022/03/22 12:07:39;;;;;;;8.00;3.60;;;;;;;;;;1801878;79;23305;-72
2022/03/22 12:10:06;;;;;;;6.55;3.62;;;;;;;;;;1762131;81;20997;-72
2022/03/22 12:12:33;;;;;;;7.28;3.60;;;;;;;;;;1761946;81;21024;-72
2022/03/22 12:15:03;;;;;;;8.18;3.67;;;;;;;;;;1761700;81;21033;-72
2022/03/22 12:17:30;;;;;;;6.60;3.25;;;;;;;;;;1761758;81;21080;-71
2022/03/22 12:19:58;;;;;;;6.65;3.47;;;;;;;;;;1761933;81;21052;-72
2022/03/22 12:22:26;;;;;;;6.78;3.75;;;;;;;;;;1761893;81;21507;-73
2022/03/22 12:24:52;;;;;;;7.45;3.65;;;;;;;;;;1761741;81;21050;-71
2022/03/22 12:27:19;;;;;;;7.22;3.70;;;;;;;;;;1742737;81;21425;-72
2022/03/22 12:29:45;;;;;;;6.67;3.30;;;;;;;;;;1761761;81;21531;-72
2022/03/22 12:32:13;;;;;;;5.47;3.27;;;;;;;;;;1761675;81;21056;-72
2022/03/22 12:34:43;;;;;;;5.55;2.80;;;;;;;;;;1761739;81;21059;-72
2022/03/22 12:37:11;;;;;;;7.55;3.72;;;;;;;;;;1761799;81;20969;-71
2022/03/22 12:39:37;;;;;;;5.28;3.47;;;;;;;;;;1761899;81;21547;-72
2022/03/22 12:42:05;;;;;;;6.67;3.50;;;;;;;;;;1761781;81;21033;-71
2022/03/22 12:44:33;;;;;;;5.33;3.37;;;;;;;;;;1761617;81;21096;-71
2022/03/22 12:47:00;;;;;;;6.72;3.50;;;;;;;;;;1761645;81;21071;-72
2022/03/22 12:49:27;;;;;;;5.35;3.22;;;;;;;;;;1761915;81;21532;-71
2022/03/22 12:51:54;;;;;;;6.28;3.20;;;;;;;;;;1761948;81;21467;-72
2022/03/22 12:54:23;;;;;;;7.25;3.77;;;;;;;;;;1761726;81;21103;-72
2022/03/22 12:56:50;;;;;;;5.45;3.08;;;;;;;;;;1761718;81;21044;-71
2022/03/22 12:59:17;;;;;;;6.58;3.17;;;;;;;;;;1761740;81;21064;-71
2022/03/22 13:01:44;;;;;;;7.30;3.30;;;;;;;;;;1761600;81;21017;-71
2022/03/22 13:04:11;;;;;;;7.05;3.27;;;;;;;;;;1740455;81;21101;-71
2022/03/22 13:06:39;;;;;;;6.05;3.00;;;;;;;;;;1723548;82;21083;-70
2022/03/22 13:11:52;;;;;;;5.28;3.30;;;;;;;;;;1717515;83;21096;-70
2022/03/22 13:17:05;;;;;;;5.35;3.52;;;;;;;;;;1717373;83;21033;-71
2022/03/22 13:19:33;;;;;;;6.65;2.90;;;;;;;;;;1706653;83;21061;-71
2022/03/22 13:22:00;;;;;;;3.77;2.70;;;;;;;;;;1716920;83;21053;-71
2022/03/22 13:24:29;;;;;;;5.53;3.37;;;;;;;;;;1716844;83;21072;-71
2022/03/22 13:26:58;;;;;;;6.37;3.10;;;;;;;;;;1716890;83;21037;-71
2022/03/22 13:29:25;;;;;;;6.58;3.67;;;;;;;;;;1716645;83;21069;-71
2022/03/22 13:31:54;;;;;;;5.58;3.35;;;;;;;;;;1716837;83;21058;-71
2022/03/22 13:34:21;;;;;;;5.30;3.27;;;;;;;;;;1716993;83;21085;-71
2022/03/22 13:36:49;;;;;;;4.62;3.25;;;;;;;;;;1716747;83;21092;-71
2022/03/22 13:39:24;;;;;;;6.47;3.17;;;;;;;;;;1716865;83;21532;-70
2022/03/22 13:41:52;;;;;;;5.60;3.08;;;;;;;;;;1716773;83;21041;-70
2022/03/22 13:44:26;;;;;;;4.97;2.83;;;;;;;;;;1717621;83;21069;-71
2022/03/22 13:46:54;;;;;;;5.95;3.22;;;;;;;;;;1717232;83;21022;-70
2022/03/22 13:49:23;;;;;;;4.25;2.80;;;;;;;;;;1720827;83;21065;-71
2022/03/22 13:51:50;;;;;;;4.37;3.02;;;;;;;;;;1720745;82;21097;-70
2022/03/22 13:54:17;;;;;;;5.67;2.80;;;;;;;;;;1716988;83;21006;-71
2022/03/22 13:56:43;;;;;;;5.35;2.55;;;;;;;;;;1717114;83;21054;-70
2022/03/22 13:59:11;;;;;;;4.75;2.85;;;;;;;;;;1717129;83;21049;-71
2022/03/22 14:01:39;;;;;;;6.25;3.15;;;;;;;;;;1717016;83;21045;-71
2022/03/22 14:04:06;;;;;;;6.50;2.67;;;;;;;;;;1716986;82;21560;-71
2022/03/22 14:06:32;;;;;;;6.42;2.85;;;;;;;;;;1720906;83;21322;-70
2022/03/22 14:08:59;;;;;;;5.90;2.77;;;;;;;;;;1729674;83;21064;-71
2022/03/22 14:11:26;;;;;;;6.20;3.02;;;;;;;;;;1729693;83;21564;-71
2022/03/22 14:13:56;;;;;;;5.08;2.90;;;;;;;;;;1729597;82;21591;-71
2022/03/22 14:16:23;;;;;;;3.10;2.20;;;;;;;;;;1729596;83;21064;-71
2022/03/22 14:18:51;;;;;;;5.53;3.22;;;;;;;;;;1729522;82;21104;-71
2022/03/22 14:21:17;;;;;;;6.72;3.05;;;;;;;;;;1729390;83;21021;-71
2022/03/22 14:23:46;;;;;;;6.03;3.22;;;;;;;;;;1729566;82;21045;-70
2022/03/22 14:26:14;;;;;;;6.83;3.98;;;;;;;;;;1729694;82;21587;-70
2022/03/22 14:28:41;;;;;;;5.97;3.10;;;;;;;;;;1729735;82;21548;-71
2022/03/22 14:31:07;;;;;;;5.80;3.00;;;;;;;;;;1729679;83;21057;-71
2022/03/22 14:33:35;;;;;;;5.10;3.10;;;;;;;;;;1730012;83;21093;-71
2022/03/22 14:36:03;;;;;;;7.40;3.15;;;;;;;;;;1729838;82;21540;-71
2022/03/22 14:38:31;;;;;;;6.00;3.20;;;;;;;;;;1728755;82;21033;-71
2022/03/22 14:41:22;;;;;;;5.78;2.92;;;;;;;;;;1729837;82;21045;-72
2022/03/22 14:43:32;;;;;;;6.20;3.40;;;;;;;;;;1727472;82;21179;-71
2022/03/22 14:45:59;;;;;;;8.08;4.12;;;;;;;;;;1729779;82;21116;-70
2022/03/22 14:48:26;;;;;;;8.98;4.70;;;;;;;;;;1729384;83;21033;-71
2022/03/22 14:50:54;;;;;;;8.05;4.30;;;;;;;;;;1729888;82;21080;-71
2022/03/22 14:58:55;;;;;;;9.10;4.78;;;;;;;;;;1729723;82;21025;-72
2022/03/22 15:01:22;;;;;;;10.05;4.42;;;;;;;;;;1729540;82;21139;-70
2022/03/22 15:03:50;;;;;;;10.32;4.03;;;;;;;;;;1729751;81;21611;-70
2022/03/22 15:06:18;;;;;;;6.87;4.28;;;;;;;;;;1729566;82;21076;-70
2022/03/22 15:08:45;;;;;;;7.40;4.05;;;;;;;;;;1729843;83;21500;-70
2022/03/22 15:11:13;;;;;;;7.35;3.85;;;;;;;;;;1729710;82;21092;-71
2022/03/22 15:13:40;;;;;;;6.75;4.15;;;;;;;;;;1729828;82;21009;-72
2022/03/22 15:16:11;;;;;;;8.30;4.30;;;;;;;;;;1729651;82;21726;-72
2022/03/22 15:18:37;;;;;;;8.03;4.10;;;;;;;;;;1730101;82;21077;-72
2022/03/22 15:21:06;;;;;;;9.80;4.58;;;;;;;;;;1729647;82;21120;-72
2022/03/22 15:23:34;;;;;;;9.18;5.17;;;;;;;;;;1729984;83;21048;-71
2022/03/22 15:26:01;;;;;;;9.20;5.33;;;;;;;;;;1729589;82;21060;-70
2022/03/22 15:28:29;;;;;;;10.48;5.70;;;;;;;;;;1729669;82;21084;-71
2022/03/22 15:30:55;;;;;;;11.22;5.67;;;;;;;;;;1729928;83;21073;-71
2022/03/22 15:33:22;;;;;;;12.73;6.53;;;;;;;;;;1729817;83;21524;-71
2022/03/22 15:35:49;;;;;;;13.65;5.92;;;;;;;;;;1729672;83;21044;-71
2022/03/22 15:38:16;;;;;;;13.85;6.47;;;;;;;;;;1729871;82;21493;-70
2022/03/22 15:40:43;;;;;;;10.50;6.10;;;;;;;;;;1729782;82;21501;-71
2022/03/22 15:43:13;;;;;;;10.70;5.92;;;;;;;;;;1729524;82;21052;-71
2022/03/22 15:45:40;;;;;;;14.38;5.97;;;;;;;;;;1729831;83;21525;-73
2022/03/22 15:48:06;;;;;;;13.78;6.67;;;;;;;;;;1729651;83;21005;-71
2022/03/22 15:51:58;;;;;;;12.13;6.65;;;;;;;;;;1801188;79;22899;-72